createdAt,value
2017-07-21T00:00:53.343Z,1.43
2017-07-21T00:03:20.664Z,1.67
2017-07-21T00:05:47.397Z,1.57
2017-07-21T00:08:13.702Z,1.23
2017-07-21T00:10:39.994Z,1.10
2017-07-21T00:13:06.309Z,1.50
2017-07-21T00:15:32.594Z,1.70
2017-07-21T00:17:58.854Z,1.30
2017-07-21T00:20:25.143Z,1.50
2017-07-21T00:22:51.397Z,1.40
2017-07-21T00:25:17.680Z,1.90
2017-07-21T00:27:44.746Z,1.50
2017-07-21T00:30:11.785Z,1.60
2017-07-21T00:32:38.062Z,1.60
2017-07-21T00:35:04.355Z,1.63
2017-07-21T00:37:30.622Z,1.30
2017-07-21T00:39:56.905Z,2.03
2017-07-21T00:42:24.184Z,1.40
2017-07-21T00:44:50.461Z,1.20
2017-07-21T00:47:16.718Z,1.70
2017-07-21T00:49:43.028Z,1.80
2017-07-21T00:52:09.282Z,1.97
2017-07-21T00:54:35.558Z,1.53
2017-07-21T00:57:01.835Z,1.93
2017-07-21T00:59:28.121Z,1.63
2017-07-21T01:01:54.383Z,1.73
2017-07-21T01:04:21.429Z,1.70
2017-07-21T01:06:48.450Z,1.83
2017-07-21T01:09:15.468Z,1.70
2017-07-21T01:11:41.805Z,1.70
2017-07-21T01:14:08.794Z,1.70
2017-07-21T01:16:35.078Z,2.07
2017-07-21T01:19:01.382Z,1.30
2017-07-21T01:21:27.663Z,1.70
2017-07-21T01:23:54.685Z,1.60
2017-07-21T01:26:21.740Z,1.90
2017-07-21T01:28:48.746Z,1.43
2017-07-21T01:31:15.067Z,1.50
2017-07-21T01:33:42.119Z,1.70
2017-07-21T01:36:08.414Z,1.60
2017-07-21T01:38:34.682Z,2.23
2017-07-21T01:41:00.994Z,1.80
2017-07-21T01:43:27.281Z,1.80
2017-07-21T01:45:53.591Z,1.40
2017-07-21T01:48:19.919Z,1.90
2017-07-21T01:50:46.274Z,1.67
2017-07-21T01:53:12.598Z,1.70
2017-07-21T01:55:39.674Z,1.77
2017-07-21T01:58:05.970Z,2.53
2017-07-21T02:00:32.988Z,1.40
2017-07-21T02:03:00.007Z,2.00
2017-07-21T02:05:26.302Z,2.03
2017-07-21T02:07:52.574Z,1.70
2017-07-21T02:10:18.886Z,1.70
2017-07-21T02:12:45.894Z,1.70
2017-07-21T02:15:12.190Z,2.17
2017-07-21T02:17:38.518Z,2.17
2017-07-21T02:20:04.814Z,1.90
2017-07-21T02:22:31.083Z,2.20
2017-07-21T02:24:57.406Z,2.10
2017-07-21T02:27:23.696Z,1.87
2017-07-21T02:29:49.986Z,1.90
2017-07-21T02:32:16.311Z,1.93
2017-07-21T02:34:42.597Z,1.93
2017-07-21T02:37:08.871Z,2.33
2017-07-21T02:39:35.154Z,2.00
2017-07-21T02:42:01.442Z,2.27
2017-07-21T02:44:27.711Z,2.00
2017-07-21T02:46:54.014Z,2.10
2017-07-21T02:49:20.270Z,1.97
2017-07-21T02:51:46.530Z,2.20
2017-07-21T02:54:12.845Z,2.10
2017-07-21T02:56:39.858Z,1.90
2017-07-21T02:59:06.128Z,2.03
2017-07-21T03:01:32.421Z,1.73
2017-07-21T03:03:58.674Z,2.13
2017-07-21T03:06:24.939Z,1.73
2017-07-21T03:08:51.248Z,2.07
2017-07-21T03:11:18.254Z,2.00
2017-07-21T03:13:44.518Z,2.30
2017-07-21T03:16:10.826Z,2.43
2017-07-21T03:18:37.085Z,2.20
2017-07-21T03:21:03.381Z,2.40
2017-07-21T03:23:29.698Z,2.40
2017-07-21T03:25:55.987Z,2.20
2017-07-21T03:28:22.282Z,2.03
2017-07-21T03:30:48.615Z,2.60
2017-07-21T03:33:14.892Z,2.80
2017-07-21T03:35:41.178Z,1.80
2017-07-21T03:38:07.478Z,2.10
2017-07-21T03:40:33.762Z,2.03
2017-07-21T03:43:00.062Z,2.60
2017-07-21T03:45:26.402Z,2.93
2017-07-21T03:47:52.697Z,2.13
2017-07-21T03:50:19.974Z,2.23
2017-07-21T03:52:46.262Z,2.30
2017-07-21T03:55:12.538Z,2.40
2017-07-21T03:57:38.806Z,2.23
2017-07-21T04:00:05.126Z,2.80
2017-07-21T04:02:31.409Z,3.47
2017-07-21T04:04:57.670Z,2.30
2017-07-21T04:07:24.686Z,2.40
2017-07-21T04:09:50.974Z,3.23
2017-07-21T04:12:17.238Z,2.40
2017-07-21T04:14:43.530Z,2.63
2017-07-21T04:17:09.830Z,2.70
2017-07-21T04:19:36.094Z,2.33
2017-07-21T04:22:02.390Z,2.50
2017-07-21T04:24:28.680Z,2.43
2017-07-21T04:26:54.955Z,2.70
2017-07-21T04:29:21.245Z,2.40
2017-07-21T04:31:48.296Z,2.30
2017-07-21T04:34:15.331Z,2.40
2017-07-21T04:36:41.611Z,1.90
2017-07-21T04:39:07.922Z,2.20
2017-07-21T04:41:34.209Z,2.73
2017-07-21T04:44:00.470Z,2.10
2017-07-21T04:46:27.493Z,2.23
2017-07-21T04:48:54.513Z,1.93
2017-07-21T04:51:20.806Z,2.10
2017-07-21T04:53:47.094Z,2.20
2017-07-21T04:56:14.435Z,1.90
2017-07-21T04:58:40.717Z,2.13
2017-07-21T05:01:07.006Z,2.90
2017-07-21T05:03:33.295Z,2.60
2017-07-21T05:05:59.571Z,2.30
2017-07-21T05:08:25.862Z,5.53
2017-07-21T05:10:52.130Z,2.07
2017-07-21T05:13:18.427Z,2.37
2017-07-21T05:15:44.697Z,2.50
2017-07-21T05:18:10.979Z,2.20
2017-07-21T05:20:37.297Z,2.10
2017-07-21T05:23:03.598Z,2.03
2017-07-21T05:25:29.877Z,2.20
2017-07-21T05:27:56.171Z,2.40
2017-07-21T05:30:22.450Z,2.07
2017-07-21T05:32:48.739Z,2.43
2017-07-21T05:35:15.137Z,1.70
2017-07-21T05:37:41.462Z,2.07
2017-07-21T05:40:07.836Z,1.70
2017-07-21T05:42:34.231Z,2.10
2017-07-21T05:45:00.614Z,2.40
2017-07-21T05:47:27.007Z,1.50
2017-07-21T05:49:53.423Z,1.53
2017-07-21T05:52:19.855Z,2.17
2017-07-21T05:54:46.277Z,1.93
2017-07-21T05:57:12.687Z,1.70
2017-07-21T05:59:39.070Z,2.00
2017-07-21T06:02:05.480Z,2.07
2017-07-21T06:04:31.855Z,2.30
2017-07-21T06:06:58.259Z,2.00
2017-07-21T06:09:24.623Z,2.33
2017-07-21T06:11:51.047Z,1.40
2017-07-21T06:14:18.184Z,2.03
2017-07-21T06:16:45.287Z,2.00
2017-07-21T06:19:11.683Z,2.00
2017-07-21T06:21:38.092Z,1.73
2017-07-21T06:24:05.524Z,2.40
2017-07-21T06:26:31.927Z,2.30
2017-07-21T06:28:58.411Z,1.73
2017-07-21T06:31:25.898Z,1.83
2017-07-21T06:33:52.369Z,1.80
2017-07-21T06:36:18.813Z,2.10
2017-07-21T06:38:45.915Z,1.97
2017-07-21T06:41:12.396Z,2.47
2017-07-21T06:43:38.781Z,2.53
2017-07-21T06:46:05.180Z,2.00
2017-07-21T06:48:31.620Z,1.77
2017-07-21T06:50:58.016Z,2.07
2017-07-21T06:53:25.170Z,2.20
2017-07-21T06:55:51.541Z,2.87
2017-07-21T06:58:18.003Z,1.83
2017-07-21T07:00:44.416Z,1.90
2017-07-21T07:03:10.843Z,1.90
2017-07-21T07:05:37.174Z,1.60
2017-07-21T07:08:03.534Z,1.70
2017-07-21T07:10:30.692Z,2.00
2017-07-21T07:12:57.801Z,2.60
2017-07-21T07:15:24.187Z,1.90
2017-07-21T07:17:50.638Z,1.67
2017-07-21T07:20:17.015Z,1.50
2017-07-21T07:22:43.335Z,2.80
2017-07-21T07:25:09.729Z,2.20
2017-07-21T07:27:36.077Z,2.27
2017-07-21T07:30:02.500Z,2.37
2017-07-21T07:32:28.927Z,1.97
2017-07-21T07:34:55.366Z,2.13
2017-07-21T07:37:22.493Z,1.50
2017-07-21T07:39:48.971Z,1.90
2017-07-21T07:42:15.339Z,2.10
2017-07-21T07:44:41.699Z,2.17
2017-07-21T07:47:08.116Z,2.13
2017-07-21T07:49:34.447Z,1.90
2017-07-21T07:52:00.802Z,1.60
2017-07-21T07:54:27.207Z,1.73
2017-07-21T07:56:53.531Z,1.30
2017-07-21T07:59:20.634Z,1.37
2017-07-21T08:01:47.506Z,1.60
2017-07-21T08:04:13.843Z,1.60
2017-07-21T08:06:40.212Z,1.90
2017-07-21T08:09:06.627Z,1.80
2017-07-21T08:11:33.005Z,1.70
2017-07-21T08:13:59.443Z,1.40
2017-07-21T08:16:25.835Z,1.50
2017-07-21T08:18:52.242Z,1.50
2017-07-21T08:21:18.619Z,1.10
2017-07-21T08:23:45.007Z,1.10
2017-07-21T08:26:11.389Z,1.10
2017-07-21T08:28:37.839Z,1.40
2017-07-21T08:31:04.272Z,1.50
2017-07-21T08:33:30.759Z,1.30
2017-07-21T08:35:57.111Z,1.10
2017-07-21T08:38:23.450Z,1.07
2017-07-21T08:40:49.791Z,1.27
2017-07-21T08:43:16.426Z,0.90
2017-07-21T08:45:42.794Z,1.17
2017-07-21T08:48:09.155Z,1.37
2017-07-21T08:50:36.291Z,1.13
2017-07-21T08:53:02.682Z,1.10
2017-07-21T08:55:29.037Z,1.73
2017-07-21T08:57:55.426Z,1.40
2017-07-21T09:00:21.890Z,1.50
2017-07-21T09:02:48.242Z,1.10
2017-07-21T09:05:14.667Z,1.00
2017-07-21T09:07:41.044Z,1.07
2017-07-21T09:10:07.419Z,1.23
2017-07-21T09:12:34.531Z,1.23
2017-07-21T09:15:01.675Z,0.80
2017-07-21T09:17:28.040Z,0.90
2017-07-21T09:19:54.468Z,1.00
2017-07-21T09:22:21.191Z,0.60
2017-07-21T09:24:47.592Z,1.10
2017-07-21T09:27:15.991Z,0.80
2017-07-21T09:29:42.420Z,1.53
2017-07-21T09:32:08.770Z,0.83
2017-07-21T09:34:35.191Z,1.30
2017-07-21T09:37:01.522Z,1.03
2017-07-21T09:39:27.896Z,1.00
2017-07-21T09:41:54.282Z,0.87
2017-07-21T09:44:20.640Z,1.13
2017-07-21T09:46:46.985Z,0.90
2017-07-21T09:49:13.467Z,1.40
2017-07-21T09:51:39.871Z,0.90
2017-07-21T09:54:06.251Z,1.10
2017-07-21T09:56:32.615Z,0.87
2017-07-21T09:59:00.092Z,0.93
2017-07-21T10:01:26.427Z,0.80
2017-07-21T10:03:52.794Z,0.90
2017-07-21T10:06:19.167Z,0.90
2017-07-21T10:08:45.487Z,0.93
2017-07-21T10:11:12.863Z,1.20
2017-07-21T10:13:39.240Z,1.40
2017-07-21T10:16:05.667Z,0.93
2017-07-21T10:18:32.006Z,1.20
2017-07-21T10:20:58.418Z,2.23
2017-07-21T10:23:24.824Z,1.53
2017-07-21T10:25:51.259Z,1.03
2017-07-21T10:28:17.673Z,1.60
2017-07-21T10:30:44.071Z,1.07
2017-07-21T10:33:11.231Z,1.50
2017-07-21T10:35:37.639Z,0.80
2017-07-21T10:38:03.998Z,1.13
2017-07-21T10:40:30.407Z,1.10
2017-07-21T10:42:56.792Z,1.27
2017-07-21T10:45:23.196Z,1.40
2017-07-21T10:47:49.562Z,1.23
2017-07-21T10:50:15.983Z,1.30
2017-07-21T10:52:42.361Z,1.17
2017-07-21T10:55:09.467Z,1.77
2017-07-21T10:57:35.886Z,1.17
2017-07-21T11:00:02.359Z,0.80
2017-07-21T11:02:28.793Z,1.20
2017-07-21T11:04:55.215Z,1.07
2017-07-21T11:07:21.607Z,1.30
2017-07-21T11:09:48.025Z,1.20
2017-07-21T11:12:14.407Z,1.07
2017-07-21T11:14:56.523Z,0.90
2017-07-21T11:17:23.115Z,0.90
2017-07-21T11:19:49.535Z,0.93
2017-07-21T11:22:16.654Z,1.13
2017-07-21T11:24:43.027Z,1.00
2017-07-21T11:27:09.423Z,1.27
2017-07-21T11:29:35.853Z,0.80
2017-07-21T11:32:02.550Z,1.17
2017-07-21T11:34:28.926Z,0.83
2017-07-21T11:36:55.347Z,0.73
2017-07-21T11:39:21.759Z,1.60
2017-07-21T11:41:48.239Z,1.37
2017-07-21T11:44:14.691Z,1.43
2017-07-21T11:46:41.066Z,0.83
2017-07-21T11:49:07.511Z,1.23
2017-07-21T11:51:33.959Z,1.03
2017-07-21T11:54:01.079Z,1.83
2017-07-21T11:56:27.463Z,1.03
2017-07-21T11:58:53.853Z,1.10
2017-07-21T12:01:20.210Z,1.33
2017-07-21T12:03:46.599Z,0.77
2017-07-21T12:06:12.999Z,1.10
2017-07-21T12:08:39.408Z,1.07
2017-07-21T12:11:05.800Z,1.10
2017-07-21T12:13:32.174Z,1.20
2017-07-21T12:15:58.559Z,1.23
2017-07-21T12:18:24.926Z,1.13
2017-07-21T12:20:51.342Z,1.10
2017-07-21T12:23:17.757Z,0.93
2017-07-21T12:25:44.120Z,1.57
2017-07-21T12:28:11.224Z,1.33
2017-07-21T12:30:37.620Z,1.30
2017-07-21T12:33:04.004Z,0.83
2017-07-21T12:35:31.144Z,1.40
2017-07-21T12:37:57.557Z,0.80
2017-07-21T12:40:24.627Z,1.23
2017-07-21T12:42:51.007Z,0.90
2017-07-21T12:45:17.391Z,1.23
2017-07-21T12:47:43.826Z,1.27
2017-07-21T12:50:10.330Z,1.10
2017-07-21T12:52:39.442Z,1.17
2017-07-21T12:55:06.515Z,0.80
2017-07-21T12:57:33.958Z,1.30
2017-07-21T13:00:00.307Z,0.97
2017-07-21T13:02:26.642Z,0.80
2017-07-21T13:04:53.014Z,1.27
2017-07-21T13:07:19.400Z,1.10
2017-07-21T13:09:45.731Z,1.20
2017-07-21T13:12:12.155Z,1.07
2017-07-21T13:14:38.555Z,1.00
2017-07-21T13:17:04.888Z,0.90
2017-07-21T13:19:31.271Z,0.93
2017-07-21T13:21:57.665Z,0.83
2017-07-21T13:24:24.055Z,1.13
2017-07-21T13:26:50.465Z,1.40
2017-07-21T13:29:16.916Z,0.90
2017-07-21T13:31:43.322Z,1.00
2017-07-21T13:34:09.687Z,1.37
2017-07-21T13:36:36.074Z,1.23
2017-07-21T13:39:03.239Z,1.17
2017-07-21T13:41:29.639Z,1.23
2017-07-21T13:43:56.039Z,1.00
2017-07-21T13:46:22.399Z,1.20
2017-07-21T13:48:48.775Z,1.00
2017-07-21T13:51:15.139Z,1.40
2017-07-21T13:53:41.494Z,1.33
2017-07-21T13:56:07.875Z,1.20
2017-07-21T13:58:34.241Z,1.33
2017-07-21T14:01:00.706Z,1.13
2017-07-21T14:03:27.099Z,1.20
2017-07-21T14:05:53.471Z,1.10
2017-07-21T14:08:20.568Z,1.00
2017-07-21T14:10:46.970Z,1.20
2017-07-21T14:13:13.373Z,2.30
2017-07-21T14:15:39.734Z,1.33
2017-07-21T14:18:06.155Z,1.60
2017-07-21T14:20:32.546Z,1.50
2017-07-21T14:22:58.910Z,1.50
2017-07-21T14:25:26.014Z,1.20
2017-07-21T14:27:52.395Z,1.30
2017-07-21T14:30:18.823Z,1.30
2017-07-21T14:32:45.152Z,1.10
2017-07-21T14:35:11.596Z,1.60
2017-07-21T14:37:38.795Z,1.20
2017-07-21T14:40:05.159Z,1.63
2017-07-21T14:42:31.555Z,1.70
2017-07-21T14:44:57.934Z,1.40
2017-07-21T14:47:24.304Z,1.40
2017-07-21T14:49:50.755Z,1.93
2017-07-21T14:52:17.137Z,1.40
2017-07-21T14:54:44.251Z,1.97
2017-07-21T14:57:11.375Z,1.57
2017-07-21T14:59:37.767Z,1.50
2017-07-21T15:02:04.128Z,1.40
2017-07-21T15:04:30.582Z,1.60
2017-07-21T15:06:57.005Z,1.30
2017-07-21T15:09:23.359Z,1.70
2017-07-21T15:11:49.936Z,1.40
2017-07-21T15:14:16.260Z,1.90
2017-07-21T15:16:43.627Z,1.60
2017-07-21T15:19:11.408Z,1.60
2017-07-21T15:21:37.666Z,1.47
2017-07-21T15:24:03.930Z,1.90
2017-07-21T15:26:30.974Z,1.30
2017-07-21T15:28:57.227Z,1.37
2017-07-21T15:31:23.490Z,1.43
2017-07-21T15:33:49.815Z,1.20
2017-07-21T15:36:16.086Z,1.73
2017-07-21T15:38:42.322Z,1.60
2017-07-21T15:41:08.602Z,1.50
2017-07-21T15:43:34.866Z,1.53
2017-07-21T15:46:01.133Z,1.80
2017-07-21T15:48:27.450Z,1.10
2017-07-21T15:50:53.727Z,1.50
2017-07-21T15:53:19.986Z,1.87
2017-07-21T15:55:46.290Z,1.57
2017-07-21T15:58:14.585Z,1.60
2017-07-21T16:00:41.399Z,1.77
2017-07-21T16:03:08.538Z,1.83
2017-07-21T16:05:34.856Z,1.70
2017-07-21T16:08:01.163Z,1.97
2017-07-21T16:10:27.486Z,1.83
2017-07-21T16:12:53.778Z,1.87
2017-07-21T16:15:35.050Z,2.17
2017-07-21T16:18:01.350Z,1.40
2017-07-21T16:20:27.629Z,1.83
2017-07-21T16:22:54.638Z,2.10
2017-07-21T16:25:21.674Z,1.90
2017-07-21T16:27:48.807Z,1.97
2017-07-21T16:30:15.842Z,1.90
2017-07-21T16:32:42.142Z,2.27
2017-07-21T16:35:08.438Z,1.73
2017-07-21T16:37:34.722Z,1.83
2017-07-21T16:40:00.998Z,4.00
2017-07-21T16:42:28.011Z,1.70
2017-07-21T16:44:54.302Z,1.90
2017-07-21T16:47:20.634Z,1.57
2017-07-21T16:49:46.910Z,1.70
2017-07-21T16:52:13.214Z,1.73
2017-07-21T16:54:39.514Z,1.70
2017-07-21T16:57:05.813Z,1.70
2017-07-21T16:59:33.938Z,1.70
2017-07-21T17:02:00.238Z,1.27
2017-07-21T17:04:26.519Z,2.63
2017-07-21T17:06:52.806Z,2.13
2017-07-21T17:09:19.853Z,1.40
2017-07-21T17:11:46.866Z,1.60
2017-07-21T17:14:13.143Z,2.03
2017-07-21T17:16:39.450Z,2.47
2017-07-21T17:19:05.744Z,1.83
2017-07-21T17:21:31.994Z,1.70
2017-07-21T17:23:58.275Z,1.77
2017-07-21T17:26:24.562Z,2.20
2017-07-21T17:28:52.737Z,2.07
2017-07-21T17:31:19.050Z,2.10
2017-07-21T17:33:45.371Z,2.10
2017-07-21T17:36:11.634Z,2.00
2017-07-21T17:38:38.674Z,2.30
2017-07-21T17:41:04.970Z,2.07
2017-07-21T17:43:31.230Z,2.40
2017-07-21T17:45:57.497Z,1.93
2017-07-21T17:48:23.786Z,1.80
2017-07-21T17:50:50.078Z,2.30
2017-07-21T17:53:16.365Z,2.40
2017-07-21T17:55:43.399Z,2.23
2017-07-21T17:58:10.406Z,2.03
2017-07-21T18:00:46.785Z,2.20
2017-07-21T18:03:13.777Z,2.20
2017-07-21T18:05:40.060Z,2.90
2017-07-21T18:08:06.351Z,2.10
2017-07-21T18:10:32.611Z,2.20
2017-07-21T18:12:58.895Z,1.80
2017-07-21T18:15:25.205Z,2.47
2017-07-21T18:17:51.462Z,2.30
2017-07-21T18:20:17.757Z,2.17
2017-07-21T18:22:44.013Z,2.20
2017-07-21T18:25:10.271Z,3.13
2017-07-21T18:27:36.567Z,2.50
2017-07-21T18:30:02.864Z,3.03
2017-07-21T18:32:29.870Z,2.80
2017-07-21T18:34:56.194Z,2.70
2017-07-21T18:37:22.450Z,2.57
2017-07-21T18:39:48.702Z,2.00
2017-07-21T18:42:15.022Z,1.80
2017-07-21T18:44:41.273Z,1.83
2017-07-21T18:47:08.266Z,2.47
2017-07-21T18:49:35.314Z,2.10
2017-07-21T18:52:01.570Z,3.63
2017-07-21T18:54:27.834Z,2.87
2017-07-21T18:56:54.878Z,3.30
2017-07-21T18:59:21.886Z,2.40
2017-07-21T19:01:48.201Z,3.07
2017-07-21T19:04:15.222Z,2.67
2017-07-21T19:06:41.507Z,2.70
2017-07-21T19:09:08.863Z,2.90
2017-07-21T19:11:35.143Z,4.00
2017-07-21T19:14:01.434Z,3.23
2017-07-21T19:16:28.426Z,3.70
2017-07-21T19:18:54.723Z,3.10
2017-07-21T19:21:21.015Z,3.00
2017-07-21T19:23:47.282Z,3.60
2017-07-21T19:26:14.583Z,2.80
2017-07-21T19:28:40.868Z,2.83
2017-07-21T19:31:08.234Z,2.83
2017-07-21T19:33:34.596Z,2.80
2017-07-21T19:36:00.905Z,2.83
2017-07-21T19:38:27.175Z,2.43
2017-07-21T19:40:53.485Z,2.60
2017-07-21T19:43:19.753Z,3.07
2017-07-21T19:45:46.038Z,2.03
2017-07-21T19:48:12.373Z,2.73
2017-07-21T19:50:38.643Z,2.90
2017-07-21T19:53:04.905Z,2.50
2017-07-21T19:55:31.970Z,2.10
2017-07-21T19:57:58.291Z,2.50
2017-07-21T20:00:24.546Z,3.20
2017-07-21T20:02:50.843Z,3.53
2017-07-21T20:05:17.102Z,3.77
2017-07-21T20:07:43.377Z,3.40
2017-07-21T20:10:09.687Z,3.03
2017-07-21T20:12:35.974Z,3.37
2017-07-21T20:15:02.254Z,3.43
2017-07-21T20:17:28.570Z,3.17
2017-07-21T20:19:54.869Z,2.67
2017-07-21T20:22:21.158Z,2.57
2017-07-21T20:24:48.515Z,3.40
2017-07-21T20:27:14.790Z,2.60
2017-07-21T20:29:41.066Z,2.73
2017-07-21T20:32:07.386Z,3.20
2017-07-21T20:34:34.413Z,2.93
2017-07-21T20:37:00.695Z,3.30
2017-07-21T20:39:27.047Z,2.80
2017-07-21T20:41:53.343Z,2.90
2017-07-21T20:44:19.618Z,2.97
2017-07-21T20:46:46.026Z,3.40
2017-07-21T20:49:12.286Z,2.90
2017-07-21T20:51:38.602Z,3.60
2017-07-21T20:54:05.690Z,3.00
2017-07-21T20:56:31.975Z,2.60
2017-07-21T20:58:59.055Z,2.50
2017-07-21T21:01:25.342Z,2.77
2017-07-21T21:03:51.594Z,2.50
2017-07-21T21:06:17.880Z,2.47
2017-07-21T21:08:44.190Z,3.00
2017-07-21T21:11:10.460Z,2.33
2017-07-21T21:13:37.506Z,2.63
2017-07-21T21:16:03.794Z,2.60
2017-07-21T21:18:30.051Z,4.03
2017-07-21T21:20:56.350Z,2.80
2017-07-21T21:23:22.638Z,2.53
2017-07-21T21:25:48.932Z,2.67
2017-07-21T21:28:15.254Z,3.03
2017-07-21T21:30:41.558Z,2.57
2017-07-21T21:33:07.876Z,3.00
2017-07-21T21:35:34.168Z,2.33
2017-07-21T21:38:00.810Z,2.63
2017-07-21T21:40:27.168Z,2.90
2017-07-21T21:42:55.286Z,2.97
2017-07-21T21:45:21.614Z,3.73
2017-07-21T21:47:47.867Z,2.33
2017-07-21T21:50:14.158Z,2.83
2017-07-21T21:52:41.566Z,2.47
2017-07-21T21:55:07.855Z,2.80
2017-07-21T21:57:34.141Z,2.57
2017-07-21T22:00:00.434Z,2.47
2017-07-21T22:02:26.694Z,2.67
2017-07-21T22:04:52.989Z,2.47
2017-07-21T22:07:19.303Z,2.43
2017-07-21T22:09:45.565Z,2.90
2017-07-21T22:12:11.838Z,3.90
2017-07-21T22:14:39.034Z,3.03
2017-07-21T22:17:05.290Z,3.60
2017-07-21T22:19:31.557Z,2.77
2017-07-21T22:21:58.626Z,2.80
2017-07-21T22:24:25.638Z,3.80
2017-07-21T22:26:52.637Z,3.50
2017-07-21T22:29:18.927Z,3.70
2017-07-21T22:31:45.544Z,3.20
2017-07-21T22:34:11.911Z,3.80
2017-07-21T22:36:38.202Z,3.80
2017-07-21T22:39:04.503Z,3.67
2017-07-21T22:41:43.194Z,3.70
2017-07-21T22:44:09.618Z,4.07
2017-07-21T22:46:35.890Z,4.70
2017-07-21T22:49:03.180Z,4.40
2017-07-21T22:51:29.626Z,3.53
2017-07-21T22:53:55.910Z,3.53
2017-07-21T22:56:22.917Z,3.03
2017-07-21T22:58:49.534Z,3.17
2017-07-21T23:01:15.766Z,3.43
2017-07-21T23:03:42.254Z,3.00
2017-07-21T23:06:08.549Z,3.43
2017-07-21T23:08:35.554Z,4.07
2017-07-21T23:11:01.837Z,4.30
2017-07-21T23:13:28.165Z,4.00
2017-07-21T23:15:55.214Z,3.90
2017-07-21T23:18:21.490Z,3.60
2017-07-21T23:20:48.508Z,4.20
2017-07-21T23:23:15.589Z,3.87
2017-07-21T23:25:42.521Z,3.87
2017-07-21T23:28:09.835Z,3.87
2017-07-21T23:30:37.002Z,3.10
2017-07-21T23:33:04.108Z,3.00
2017-07-21T23:35:31.311Z,3.30
2017-07-21T23:37:57.663Z,3.73
2017-07-21T23:40:24.026Z,3.80
2017-07-21T23:42:50.392Z,3.40
2017-07-21T23:45:16.810Z,3.80
2017-07-21T23:47:43.177Z,3.50
2017-07-21T23:50:09.623Z,3.83
2017-07-21T23:52:35.983Z,2.97
2017-07-21T23:55:02.366Z,2.20
2017-07-21T23:57:28.744Z,2.60
2017-07-21T23:59:55.115Z,2.77
